Hsc Superjet — IINO — position and weather

sailwx.info

Track history (hours):
 
Tides and Currents Weather Stations Pressure Air Temp Water Temp Dewpoint Dewpoint Depression Visibility Wind Speed Wind Dir Waves Ship Positions

Hsc Superjet

Last reported at 2015-Apr-27 17:12 UTC. Time now 2015-Apr-27 20:45 UTC.
Position N 40°38' E 014°23'.

Length 44 m; draft 1.4 m.

Type: High speed craft. MMSI: 247540000.

Date/timePositionNaut miles runAvg speedWind from/ knotsBaromVisibWave heightAir tempDewpointWater temp
2015-Apr-27 17:12N 40°38' E 014°23'1419.3
2015-Apr-27 16:30N 40°50' E 014°15'6 6.6
2015-Apr-27 15:33N 40°44' E 014°16'1110.5
2015-Apr-27 14:32N 40°33' E 014°14'17 8.3
2015-Apr-27 12:31N 40°50' E 014°15'1716.6
2015-Apr-27 11:30N 40°33' E 014°14'0 0.0
2015-Apr-27 10:32N 40°33' E 014°14'0 0.0
2015-Apr-27 09:33N 40°33' E 014°14'1714.4
2015-Apr-27 08:23N 40°50' E 014°16'1720.0
2015-Apr-27 07:33N 40°33' E 014°14'10 4.8
2015-Apr-27 05:33N 40°41' E 014°21'4 0.3
2015-Apr-26 17:08N 40°38' E 014°23'1313.4
2015-Apr-26 16:09N 40°50' E 014°16'1321.6
2015-Apr-26 15:34N 40°37' E 014°16'4 3.8
2015-Apr-26 14:33N 40°33' E 014°15'17 7.1
2015-Apr-26 12:11N 40°50' E 014°15'0 0.0
2015-Apr-26 11:33N 40°50' E 014°15'1717.1
2015-Apr-26 10:34N 40°33' E 014°14'0 0.2
2015-Apr-26 09:33N 40°33' E 014°15'1713.8
2015-Apr-26 08:21N 40°50' E 014°17'1720.9
2015-Apr-26 07:33N 40°33' E 014°14'10 4.8
2015-Apr-26 05:33N 40°42' E 014°21'4 0.3
2015-Apr-25 17:09N 40°38' E 014°23'7 4.6
2015-Apr-25 15:34N 40°43' E 014°16'1010.0
2015-Apr-25 14:33N 40°33' E 014°14'1715.9
2015-Apr-25 13:30N 40°50' E 014°15'0 0.0
2015-Apr-25 11:33N 40°50' E 014°15'1716.9
2015-Apr-25 10:33N 40°33' E 014°14'1 0.7
2015-Apr-25 09:33N 40°34' E 014°15'1614.4
2015-Apr-25 08:26N 40°50' E 014°16'1719.0
2015-Apr-25 07:33N 40°33' E 014°14'1713.7
2015-Apr-25 06:19N 40°50' E 014°15'1013.0
2015-Apr-25 05:33N 40°41' E 014°21'4 3.7
2015-Apr-25 04:33N 40°38' E 014°23'0 0.0
2015-Apr-24 17:07N 40°38' E 014°23'1420.3
2015-Apr-24 16:27N 40°50' E 014°15'9 9.7
2015-Apr-24 15:34N 40°42' E 014°16'8 8.1
2015-Apr-24 14:33N 40°33' E 014°14'17 8.3
2015-Apr-24 12:32N 40°50' E 014°16'1717.1
2015-Apr-24 11:33N 40°33' E 014°14'0 0.0
2015-Apr-24 10:33N 40°33' E 014°14'0 0.0
2015-Apr-24 09:33N 40°33' E 014°14'1715.1
2015-Apr-24 08:27N 40°50' E 014°15'1719.1
2015-Apr-24 07:34N 40°33' E 014°14'10 4.8
2015-Apr-24 05:33N 40°42' E 014°21'4 4.2
2015-Apr-24 04:33N 40°38' E 014°23'0 0.0
2015-Apr-23 17:11N 40°38' E 014°23'1321.1
2015-Apr-23 16:33N 40°50' E 014°16'0 0.3
2015-Apr-23 15:18N 40°50' E 014°17'1722.1
2015-Apr-23 14:33N 40°33' E 014°14'0 0.0
2015-Apr-23 13:33N 40°33' E 014°14'1716.2
2015-Apr-23 12:31N 40°50' E 014°15'0 0.0
2015-Apr-23 11:29N 40°50' E 014°15'1718.1
2015-Apr-23 10:34N 40°33' E 014°14'0 0.0
2015-Apr-23 09:33N 40°33' E 014°14'1713.8
2015-Apr-23 08:21N 40°50' E 014°17'1620.7
2015-Apr-23 07:33N 40°33' E 014°15'9 4.5
2015-Apr-23 05:32N 40°41' E 014°21'3 0.3
2015-Apr-22 17:07N 40°38' E 014°23'1322.3
2015-Apr-22 16:33N 40°50' E 014°17'7 7.2
2015-Apr-22 15:33N 40°42' E 014°17'9 9.2
2015-Apr-22 14:33N 40°33' E 014°14'1713.0
2015-Apr-22 13:16N 40°50' E 014°15'0 0.0
2015-Apr-22 12:33N 40°50' E 014°15'0 0.0
2015-Apr-22 11:30N 40°50' E 014°15'1717.7
2015-Apr-22 10:33N 40°33' E 014°14'0 0.0
2015-Apr-22 09:33N 40°33' E 014°14'1716.7
2015-Apr-22 08:33N 40°50' E 014°15'1716.9
2015-Apr-22 07:33N 40°33' E 014°14'10 4.8
2015-Apr-22 05:31N 40°42' E 014°21'4 0.3
2015-Apr-21 17:07N 40°38' E 014°23'8 4.8
2015-Apr-21 15:33N 40°44' E 014°16'10 9.9
2015-Apr-21 14:32N 40°33' E 014°14'17 7.7
2015-Apr-21 12:23N 40°50' E 014°17'1720.2
2015-Apr-21 11:34N 40°33' E 014°14'0 0.0
2015-Apr-21 10:33N 40°33' E 014°14'0 0.0
2015-Apr-21 09:33N 40°33' E 014°14'1716.2
2015-Apr-21 08:31N 40°50' E 014°15'1717.3
2015-Apr-21 07:32N 40°33' E 014°14'11 5.4
2015-Apr-21 05:33N 40°43' E 014°21'5 0.4
2015-Apr-20 17:04N 40°38' E 014°23'1324.7
2015-Apr-20 16:33N 40°50' E 014°17'6 6.1
2015-Apr-20 15:34N 40°44' E 014°17'1010.3
2015-Apr-20 14:33N 40°33' E 014°14'1715.2
2015-Apr-20 13:27N 40°50' E 014°15'0 0.0
2015-Apr-20 12:33N 40°50' E 014°15'1716.9
2015-Apr-20 11:33N 40°33' E 014°14'0 0.0
2015-Apr-20 10:33N 40°33' E 014°14'1716.7
2015-Apr-20 09:33N 40°50' E 014°15'0 0.0
2015-Apr-20 08:33N 40°50' E 014°15'1716.8
2015-Apr-20 07:32N 40°33' E 014°14'10 5.1
2015-Apr-20 05:32N 40°42' E 014°21'5 0.4
2015-Apr-19 17:06N 40°38' E 014°23'1323.3
2015-Apr-19 16:33N 40°50' E 014°17'7 6.8
2015-Apr-19 15:33N 40°43' E 014°16'10 9.5
2015-Apr-19 14:33N 40°33' E 014°14'17 7.8
2015-Apr-19 12:25N 40°50' E 014°16'1719.3
2015-Apr-19 11:34N 40°33' E 014°14'0 0.0
2015-Apr-19 10:33N 40°33' E 014°14'17 7.6
2015-Apr-19 08:21N 40°50' E 014°16'1720.8
2015-Apr-19 07:33N 40°33' E 014°14'11 5.4
2015-Apr-19 05:33N 40°43' E 014°22'5 0.4
2015-Apr-18 17:08N 40°38' E 014°23'7 4.5
2015-Apr-18 15:33N 40°43' E 014°16'10 9.6
2015-Apr-18 14:32N 40°33' E 014°14'17 8.4
2015-Apr-18 12:31N 40°50' E 014°15'1717.4
2015-Apr-18 11:33N 40°33' E 014°14'0 0.0
2015-Apr-18 10:33N 40°33' E 014°14'1716.6
2015-Apr-18 09:33N 40°50' E 014°15'0 0.0
2015-Apr-18 08:32N 40°50' E 014°15'1717.0
2015-Apr-18 07:32N 40°33' E 014°14'10 4.8
2015-Apr-18 05:33N 40°42' E 014°21'4 0.3
2015-Apr-17 17:30N 40°38' E 014°23'  
Track history (hours):
 
Tides and Currents Weather Stations Pressure Air Temp Water Temp Dewpoint Dewpoint Depression Visibility Wind Speed Wind Dir Waves Ship Positions

Hsc Superjet

Last reported at 2015-Apr-27 17:12 UTC. Time now 2015-Apr-27 20:45 UTC.
Position N 40°38' E 014°23'.

Length 44 m; draft 1.4 m.

Type: High speed craft. MMSI: 247540000.

Date/timePositionNaut miles runAvg speedWind from/ knotsBaromVisibWave heightAir tempDewpointWater temp
2015-Apr-27 17:12N 40°38' E 014°23'1419.3
2015-Apr-27 16:30N 40°50' E 014°15'6 6.6
2015-Apr-27 15:33N 40°44' E 014°16'1110.5
2015-Apr-27 14:32N 40°33' E 014°14'17 8.3
2015-Apr-27 12:31N 40°50' E 014°15'1716.6
2015-Apr-27 11:30N 40°33' E 014°14'0 0.0
2015-Apr-27 10:32N 40°33' E 014°14'0 0.0
2015-Apr-27 09:33N 40°33' E 014°14'1714.4
2015-Apr-27 08:23N 40°50' E 014°16'1720.0
2015-Apr-27 07:33N 40°33' E 014°14'10 4.8
2015-Apr-27 05:33N 40°41' E 014°21'4 0.3
2015-Apr-26 17:08N 40°38' E 014°23'1313.4
2015-Apr-26 16:09N 40°50' E 014°16'1321.6
2015-Apr-26 15:34N 40°37' E 014°16'4 3.8
2015-Apr-26 14:33N 40°33' E 014°15'17 7.1
2015-Apr-26 12:11N 40°50' E 014°15'0 0.0
2015-Apr-26 11:33N 40°50' E 014°15'1717.1
2015-Apr-26 10:34N 40°33' E 014°14'0 0.2
2015-Apr-26 09:33N 40°33' E 014°15'1713.8
2015-Apr-26 08:21N 40°50' E 014°17'1720.9
2015-Apr-26 07:33N 40°33' E 014°14'10 4.8
2015-Apr-26 05:33N 40°42' E 014°21'4 0.3
2015-Apr-25 17:09N 40°38' E 014°23'7 4.6
2015-Apr-25 15:34N 40°43' E 014°16'1010.0
2015-Apr-25 14:33N 40°33' E 014°14'1715.9
2015-Apr-25 13:30N 40°50' E 014°15'0 0.0
2015-Apr-25 11:33N 40°50' E 014°15'1716.9
2015-Apr-25 10:33N 40°33' E 014°14'1 0.7
2015-Apr-25 09:33N 40°34' E 014°15'1614.4
2015-Apr-25 08:26N 40°50' E 014°16'1719.0
2015-Apr-25 07:33N 40°33' E 014°14'1713.7
2015-Apr-25 06:19N 40°50' E 014°15'1013.0
2015-Apr-25 05:33N 40°41' E 014°21'4 3.7
2015-Apr-25 04:33N 40°38' E 014°23'0 0.0
2015-Apr-24 17:07N 40°38' E 014°23'1420.3
2015-Apr-24 16:27N 40°50' E 014°15'9 9.7
2015-Apr-24 15:34N 40°42' E 014°16'8 8.1
2015-Apr-24 14:33N 40°33' E 014°14'17 8.3
2015-Apr-24 12:32N 40°50' E 014°16'1717.1
2015-Apr-24 11:33N 40°33' E 014°14'0 0.0
2015-Apr-24 10:33N 40°33' E 014°14'0 0.0
2015-Apr-24 09:33N 40°33' E 014°14'1715.1
2015-Apr-24 08:27N 40°50' E 014°15'1719.1
2015-Apr-24 07:34N 40°33' E 014°14'10 4.8
2015-Apr-24 05:33N 40°42' E 014°21'4 4.2
2015-Apr-24 04:33N 40°38' E 014°23'0 0.0
2015-Apr-23 17:11N 40°38' E 014°23'1321.1
2015-Apr-23 16:33N 40°50' E 014°16'0 0.3
2015-Apr-23 15:18N 40°50' E 014°17'1722.1
2015-Apr-23 14:33N 40°33' E 014°14'0 0.0
2015-Apr-23 13:33N 40°33' E 014°14'1716.2
2015-Apr-23 12:31N 40°50' E 014°15'0 0.0
2015-Apr-23 11:29N 40°50' E 014°15'1718.1
2015-Apr-23 10:34N 40°33' E 014°14'0 0.0
2015-Apr-23 09:33N 40°33' E 014°14'1713.8
2015-Apr-23 08:21N 40°50' E 014°17'1620.7
2015-Apr-23 07:33N 40°33' E 014°15'9 4.5
2015-Apr-23 05:32N 40°41' E 014°21'3 0.3
2015-Apr-22 17:07N 40°38' E 014°23'1322.3
2015-Apr-22 16:33N 40°50' E 014°17'7 7.2
2015-Apr-22 15:33N 40°42' E 014°17'9 9.2
2015-Apr-22 14:33N 40°33' E 014°14'1713.0
2015-Apr-22 13:16N 40°50' E 014°15'0 0.0
2015-Apr-22 12:33N 40°50' E 014°15'0 0.0
2015-Apr-22 11:30N 40°50' E 014°15'1717.7
2015-Apr-22 10:33N 40°33' E 014°14'0 0.0
2015-Apr-22 09:33N 40°33' E 014°14'1716.7
2015-Apr-22 08:33N 40°50' E 014°15'1716.9
2015-Apr-22 07:33N 40°33' E 014°14'10 4.8
2015-Apr-22 05:31N 40°42' E 014°21'4 0.3
2015-Apr-21 17:07N 40°38' E 014°23'8 4.8
2015-Apr-21 15:33N 40°44' E 014°16'10 9.9
2015-Apr-21 14:32N 40°33' E 014°14'17 7.7
2015-Apr-21 12:23N 40°50' E 014°17'1720.2
2015-Apr-21 11:34N 40°33' E 014°14'0 0.0
2015-Apr-21 10:33N 40°33' E 014°14'0 0.0
2015-Apr-21 09:33N 40°33' E 014°14'1716.2
2015-Apr-21 08:31N 40°50' E 014°15'1717.3
2015-Apr-21 07:32N 40°33' E 014°14'11 5.4
2015-Apr-21 05:33N 40°43' E 014°21'5 0.4
2015-Apr-20 17:04N 40°38' E 014°23'1324.7
2015-Apr-20 16:33N 40°50' E 014°17'6 6.1
2015-Apr-20 15:34N 40°44' E 014°17'1010.3
2015-Apr-20 14:33N 40°33' E 014°14'1715.2
2015-Apr-20 13:27N 40°50' E 014°15'0 0.0
2015-Apr-20 12:33N 40°50' E 014°15'1716.9
2015-Apr-20 11:33N 40°33' E 014°14'0 0.0
2015-Apr-20 10:33N 40°33' E 014°14'1716.7
2015-Apr-20 09:33N 40°50' E 014°15'0 0.0
2015-Apr-20 08:33N 40°50' E 014°15'1716.8
2015-Apr-20 07:32N 40°33' E 014°14'10 5.1
2015-Apr-20 05:32N 40°42' E 014°21'5 0.4
2015-Apr-19 17:06N 40°38' E 014°23'1323.3
2015-Apr-19 16:33N 40°50' E 014°17'7 6.8
2015-Apr-19 15:33N 40°43' E 014°16'10 9.5
2015-Apr-19 14:33N 40°33' E 014°14'17 7.8
2015-Apr-19 12:25N 40°50' E 014°16'1719.3
2015-Apr-19 11:34N 40°33' E 014°14'0 0.0
2015-Apr-19 10:33N 40°33' E 014°14'17 7.6
2015-Apr-19 08:21N 40°50' E 014°16'1720.8
2015-Apr-19 07:33N 40°33' E 014°14'11 5.4
2015-Apr-19 05:33N 40°43' E 014°22'5 0.4
2015-Apr-18 17:08N 40°38' E 014°23'7 4.5
2015-Apr-18 15:33N 40°43' E 014°16'10 9.6
2015-Apr-18 14:32N 40°33' E 014°14'17 8.4
2015-Apr-18 12:31N 40°50' E 014°15'1717.4
2015-Apr-18 11:33N 40°33' E 014°14'0 0.0
2015-Apr-18 10:33N 40°33' E 014°14'1716.6
2015-Apr-18 09:33N 40°50' E 014°15'0 0.0
2015-Apr-18 08:32N 40°50' E 014°15'1717.0
2015-Apr-18 07:32N 40°33' E 014°14'10 4.8
2015-Apr-18 05:33N 40°42' E 014°21'4 0.3
2015-Apr-17 17:30N 40°38' E 014°23'  

Dump ship's entire track history